Time;durP1;ratioP1;P1;durP2;ratioP2;P2;SDS_P1;SDS_P2;PMS_P1;PMS_P2;Temp;Humidity;BMP_temperature;BMP_pressure;BME280_temperature;BME280_humidity;BME280_pressure;Samples;Min_cycle;Max_cycle;Signal;HPM_P1;HPM_P2
2022/06/10 00:01:03;;;;;;;2.45;1.83;;;;;;;;;;4840673;29;20140;-79
2022/06/10 00:03:32;;;;;;;4.07;2.00;;;;;;;;;;4841112;29;20136;-80
2022/06/10 00:06:01;;;;;;;2.40;1.58;;;;;;;;;;4856833;29;20061;-80
2022/06/10 00:08:29;;;;;;;2.95;1.80;;;;;;;;;;4839745;29;20053;-80
2022/06/10 00:10:57;;;;;;;3.47;1.67;;;;;;;;;;4856322;29;20275;-80
2022/06/10 00:13:26;;;;;;;3.33;1.80;;;;;;;;;;4840175;29;20069;-79
2022/06/10 00:15:54;;;;;;;6.05;1.63;;;;;;;;;;4857242;29;20069;-80
2022/06/10 00:18:23;;;;;;;4.38;1.60;;;;;;;;;;4840255;29;20092;-80
2022/06/10 00:20:50;;;;;;;3.10;1.48;;;;;;;;;;4857413;29;20049;-80
2022/06/10 00:23:18;;;;;;;3.35;1.58;;;;;;;;;;4841440;29;20049;-79
2022/06/10 00:25:46;;;;;;;3.53;1.67;;;;;;;;;;4843906;29;20057;-79
2022/06/10 00:28:14;;;;;;;2.08;1.80;;;;;;;;;;4860470;29;20121;-80
2022/06/10 00:30:41;;;;;;;1.70;1.60;;;;;;;;;;4857841;29;20050;-80
2022/06/10 00:33:09;;;;;;;2.20;1.58;;;;;;;;;;4825967;29;20089;-80
2022/06/10 00:35:38;;;;;;;4.25;1.77;;;;;;;;;;4857466;29;20110;-80
2022/06/10 00:38:06;;;;;;;3.45;1.90;;;;;;;;;;4855326;29;20049;-80
2022/06/10 00:40:36;;;;;;;7.75;1.80;;;;;;;;;;4856008;29;20049;-80
2022/06/10 00:43:03;;;;;;;3.10;2.30;;;;;;;;;;4857184;29;20119;-80
2022/06/10 00:45:51;;;;;;;4.55;1.90;;;;;;;;;;4839324;29;20510;-80
2022/06/10 00:48:31;;;;;;;1.95;1.85;;;;;;;;;;4823866;29;20491;-80
2022/06/10 00:50:59;;;;;;;4.47;1.77;;;;;;;;;;4840383;29;20064;-80
2022/06/10 00:53:31;;;;;;;3.03;1.88;;;;;;;;;;4838790;29;20136;-80
2022/06/10 00:56:00;;;;;;;3.67;1.85;;;;;;;;;;4839807;29;20117;-80
2022/06/10 00:58:40;;;;;;;2.53;1.80;;;;;;;;;;4839532;29;20152;-80
2022/06/10 01:01:09;;;;;;;2.90;1.83;;;;;;;;;;4855936;29;20076;-80
2022/06/10 01:03:37;;;;;;;3.72;2.00;;;;;;;;;;4839013;29;20566;-80
2022/06/10 01:06:04;;;;;;;2.00;1.48;;;;;;;;;;4855531;29;20537;-80
2022/06/10 01:08:32;;;;;;;1.95;1.85;;;;;;;;;;4854497;29;20049;-79
2022/06/10 01:10:59;;;;;;;5.03;2.00;;;;;;;;;;4823872;29;20094;-79
2022/06/10 01:13:39;;;;;;;4.53;2.13;;;;;;;;;;4838468;29;20049;-79
2022/06/10 01:16:25;;;;;;;7.22;2.00;;;;;;;;;;4834780;29;20428;-79
2022/06/10 01:18:59;;;;;;;5.70;1.70;;;;;;;;;;4837715;29;20387;-79
2022/06/10 01:21:37;;;;;;;3.92;1.83;;;;;;;;;;4838741;29;20132;-79
2022/06/10 01:24:18;;;;;;;2.78;1.88;;;;;;;;;;4854347;29;20502;-79
2022/06/10 01:30:00;;;;;;;2.30;1.60;;;;;;;;;;4855378;29;20053;-79
2022/06/10 01:32:34;;;;;;;3.90;1.98;;;;;;;;;;4837951;29;20063;-79
2022/06/10 01:35:16;;;;;;;7.40;1.67;;;;;;;;;;4854929;29;20045;-80
2022/06/10 01:37:58;;;;;;;4.93;1.50;;;;;;;;;;4854188;29;20051;-79
2022/06/10 01:40:28;;;;;;;2.67;1.80;;;;;;;;;;4868479;24;20133;-79
2022/06/10 01:43:03;;;;;;;3.95;1.80;;;;;;;;;;4841313;29;20532;-77
2022/06/10 01:45:37;;;;;;;4.85;1.60;;;;;;;;;;4845360;29;20045;-78
2022/06/10 01:48:14;;;;;;;2.90;1.65;;;;;;;;;;4859517;29;20087;-79
2022/06/10 01:50:47;;;;;;;2.45;1.45;;;;;;;;;;4860275;29;20054;-79
2022/06/10 01:53:20;;;;;;;2.60;1.60;;;;;;;;;;4861451;29;20046;-79
2022/06/10 01:55:51;;;;;;;4.82;1.80;;;;;;;;;;4860334;29;20049;-78
2022/06/10 01:58:28;;;;;;;6.05;2.05;;;;;;;;;;4858550;29;20517;-78
2022/06/10 02:01:06;;;;;;;2.33;1.60;;;;;;;;;;4835229;29;20049;-79
2022/06/10 02:03:39;;;;;;;3.22;1.80;;;;;;;;;;4860066;29;20060;-78
2022/06/10 02:06:12;;;;;;;2.30;1.73;;;;;;;;;;4859879;29;20156;-78
2022/06/10 02:08:43;;;;;;;1.90;1.70;;;;;;;;;;4859618;29;20049;-78
2022/06/10 02:11:14;;;;;;;4.30;1.60;;;;;;;;;;4860779;29;20063;-79
2022/06/10 02:13:45;;;;;;;3.67;1.58;;;;;;;;;;4844548;29;20094;-76
2022/06/10 02:16:14;;;;;;;3.92;1.60;;;;;;;;;;4859601;29;20081;-77
2022/06/10 02:18:54;;;;;;;3.22;1.70;;;;;;;;;;4849729;29;20140;-77
2022/06/10 02:21:25;;;;;;;9.65;4.57;;;;;;;;;;4850064;29;20157;-77
2022/06/10 02:23:59;;;;;;;6.55;4.93;;;;;;;;;;4845689;29;20057;-78
2022/06/10 02:26:28;;;;;;;4.65;2.17;;;;;;;;;;4843302;29;20050;-77
2022/06/10 02:28:57;;;;;;;5.03;1.65;;;;;;;;;;4839149;29;20098;-78
2022/06/10 02:31:32;;;;;;;4.72;1.50;;;;;;;;;;4858184;29;20086;-78
2022/06/10 02:34:03;;;;;;;3.80;1.50;;;;;;;;;;4856045;29;20049;-79
2022/06/10 02:36:49;;;;;;;4.90;1.50;;;;;;;;;;4842440;29;20076;-76
2022/06/10 02:39:26;;;;;;;3.25;2.10;;;;;;;;;;4845001;29;20065;-77
2022/06/10 02:42:03;;;;;;;3.65;1.80;;;;;;;;;;4847054;29;20102;-77
2022/06/10 02:44:38;;;;;;;3.67;1.83;;;;;;;;;;4861356;29;20049;-76
2022/06/10 02:47:25;;;;;;;2.53;1.60;;;;;;;;;;4861086;29;20046;-78
2022/06/10 02:49:53;;;;;;;6.50;2.20;;;;;;;;;;4840889;29;20153;-77
2022/06/10 02:52:22;;;;;;;1.75;1.65;;;;;;;;;;4860437;29;20602;-77
2022/06/10 02:54:50;;;;;;;2.83;1.55;;;;;;;;;;4844947;29;20050;-77
2022/06/10 02:57:19;;;;;;;2.97;1.75;;;;;;;;;;4823232;29;20109;-78
2022/06/10 03:02:35;;;;;;;2.10;1.75;;;;;;;;;;4845217;29;20211;-78
2022/06/10 03:05:19;;;;;;;3.08;2.83;;;;;;;;;;4844768;29;20046;-79
2022/06/10 03:08:02;;;;;;;3.40;3.13;;;;;;;;;;4843322;29;20445;-76
2022/06/10 03:10:33;;;;;;;5.50;3.33;;;;;;;;;;4841278;29;20081;-78
2022/06/10 03:13:03;;;;;;;3.85;2.10;;;;;;;;;;4859045;29;20046;-79
2022/06/10 03:15:40;;;;;;;6.28;1.73;;;;;;;;;;4842030;29;20062;-76
2022/06/10 03:18:07;;;;;;;3.03;1.98;;;;;;;;;;4841023;29;20050;-78
2022/06/10 03:20:39;;;;;;;2.75;1.80;;;;;;;;;;4842449;29;20056;-78
2022/06/10 03:23:07;;;;;;;4.05;1.52;;;;;;;;;;4843100;29;20069;-77
2022/06/10 03:25:37;;;;;;;7.95;1.73;;;;;;;;;;4858984;29;20049;-78
2022/06/10 03:28:25;;;;;;;6.50;1.85;;;;;;;;;;4859671;29;20148;-78
2022/06/10 03:30:55;;;;;;;6.22;2.05;;;;;;;;;;4860423;29;20053;-77
2022/06/10 03:33:30;;;;;;;3.90;2.00;;;;;;;;;;4819441;29;20074;-77
2022/06/10 03:36:03;;;;;;;1.88;1.50;;;;;;;;;;4824128;29;20054;-77
2022/06/10 03:38:32;;;;;;;2.47;1.90;;;;;;;;;;4821878;29;20050;-77
2022/06/10 03:41:01;;;;;;;2.42;1.80;;;;;;;;;;4841503;29;20046;-78
2022/06/10 03:43:33;;;;;;;5.13;2.08;;;;;;;;;;4843042;29;20080;-78
2022/06/10 03:46:03;;;;;;;1.92;1.63;;;;;;;;;;4860860;29;20057;-78
2022/06/10 03:48:34;;;;;;;2.08;1.70;;;;;;;;;;4860570;29;20053;-77
2022/06/10 03:51:01;;;;;;;1.80;1.70;;;;;;;;;;4861659;29;20053;-76
2022/06/10 03:53:29;;;;;;;6.07;1.83;;;;;;;;;;4862157;29;20060;-76
2022/06/10 03:55:56;;;;;;;2.83;1.63;;;;;;;;;;4861872;29;20418;-78
2022/06/10 03:58:23;;;;;;;2.30;1.60;;;;;;;;;;4861549;29;20049;-76
2022/06/10 04:00:51;;;;;;;5.03;1.92;;;;;;;;;;4862866;29;20100;-76
2022/06/10 04:03:18;;;;;;;6.63;1.75;;;;;;;;;;4861372;29;20053;-78
2022/06/10 04:05:46;;;;;;;4.20;2.38;;;;;;;;;;4841027;29;20049;-77
2022/06/10 04:08:33;;;;;;;3.88;1.77;;;;;;;;;;4836381;29;20140;-77
2022/06/10 04:11:01;;;;;;;4.05;1.88;;;;;;;;;;4838627;29;20081;-79
2022/06/10 04:13:28;;;;;;;2.92;2.03;;;;;;;;;;4845309;29;20056;-77
2022/06/10 04:15:55;;;;;;;2.92;1.77;;;;;;;;;;4832744;29;20082;-78
2022/06/10 04:18:23;;;;;;;2.25;1.65;;;;;;;;;;4824708;29;20042;-78
2022/06/10 04:20:50;;;;;;;1.80;1.70;;;;;;;;;;4823383;29;20078;-78
2022/06/10 04:23:18;;;;;;;1.48;1.38;;;;;;;;;;4832138;29;20064;-78
2022/06/10 04:25:45;;;;;;;3.38;1.67;;;;;;;;;;4846375;29;20085;-78
2022/06/10 04:28:13;;;;;;;4.15;1.83;;;;;;;;;;4845140;29;20053;-77
2022/06/10 04:30:45;;;;;;;1.88;1.50;;;;;;;;;;4846726;29;20124;-77
2022/06/10 04:33:12;;;;;;;;;;;;;;;;;;4829191;29;20077;-79
2022/06/10 04:35:41;;;;;;;6.60;1.77;;;;;;;;;;4843238;29;20337;-78
2022/06/10 04:38:08;;;;;;;2.15;1.80;;;;;;;;;;4833986;29;20045;-78
2022/06/10 04:40:37;;;;;;;2.85;1.70;;;;;;;;;;4855103;29;20638;-79
2022/06/10 04:43:06;;;;;;;2.80;1.70;;;;;;;;;;4860020;29;20407;-79
2022/06/10 04:45:36;;;;;;;3.45;1.73;;;;;;;;;;4860655;29;20042;-77
2022/06/10 04:48:04;;;;;;;3.75;1.80;;;;;;;;;;4859740;29;20114;-78
2022/06/10 04:50:32;;;;;;;1.90;1.80;;;;;;;;;;4860045;29;20053;-79
2022/06/10 04:53:00;;;;;;;2.67;1.83;;;;;;;;;;4860334;29;20514;-79
2022/06/10 04:55:27;;;;;;;1.90;1.80;;;;;;;;;;4860064;29;20053;-79
2022/06/10 04:57:56;;;;;;;4.75;1.83;;;;;;;;;;4859081;29;20140;-77
2022/06/10 05:00:28;;;;;;;6.63;1.95;;;;;;;;;;4842518;29;20053;-78
2022/06/10 05:02:55;;;;;;;;;;;;;;;;;;4860935;29;20050;-78
2022/06/10 05:05:23;;;;;;;2.92;1.70;;;;;;;;;;4860269;29;20507;-77
2022/06/10 05:07:51;;;;;;;4.47;1.80;;;;;;;;;;4860041;29;20201;-79
2022/06/10 05:10:19;;;;;;;2.85;1.98;;;;;;;;;;4861064;29;20122;-78
2022/06/10 05:12:46;;;;;;;2.47;1.85;;;;;;;;;;4828454;29;20058;-77
2022/06/10 05:15:15;;;;;;;6.15;2.17;;;;;;;;;;4841684;29;20052;-78
2022/06/10 05:17:43;;;;;;;5.70;2.17;;;;;;;;;;4859455;29;20045;-77
2022/06/10 05:20:12;;;;;;;3.45;1.90;;;;;;;;;;4858610;29;20262;-79
2022/06/10 05:22:40;;;;;;;4.20;2.00;;;;;;;;;;4859165;29;20064;-78
2022/06/10 05:25:07;;;;;;;4.72;2.25;;;;;;;;;;4860629;29;20056;-78
2022/06/10 05:27:35;;;;;;;5.93;2.00;;;;;;;;;;4859523;29;20136;-78
2022/06/10 05:30:03;;;;;;;3.30;1.90;;;;;;;;;;4844744;29;20118;-78
2022/06/10 05:32:30;;;;;;;2.55;2.15;;;;;;;;;;4847341;29;20506;-78
2022/06/10 05:34:58;;;;;;;2.40;1.98;;;;;;;;;;4853408;29;20335;-78
2022/06/10 05:37:26;;;;;;;3.42;1.90;;;;;;;;;;4846373;29;20410;-78
2022/06/10 05:39:55;;;;;;;4.90;2.33;;;;;;;;;;4844496;29;20049;-78
2022/06/10 05:42:22;;;;;;;3.38;2.17;;;;;;;;;;4850634;29;20083;-78
2022/06/10 05:44:51;;;;;;;3.47;2.10;;;;;;;;;;4841877;29;20082;-78
2022/06/10 05:47:29;;;;;;;5.13;2.00;;;;;;;;;;4858182;29;20077;-77
2022/06/10 05:49:58;;;;;;;4.70;2.53;;;;;;;;;;4857868;29;20046;-78
2022/06/10 05:52:26;;;;;;;2.75;1.98;;;;;;;;;;4857041;29;20084;-78
2022/06/10 05:54:55;;;;;;;5.15;2.35;;;;;;;;;;4845997;29;20050;-78
2022/06/10 05:57:22;;;;;;;5.18;2.13;;;;;;;;;;4832299;29;20053;-79
2022/06/10 05:59:52;;;;;;;10.55;2.80;;;;;;;;;;4818795;29;20048;-79
2022/06/10 06:02:21;;;;;;;4.40;2.05;;;;;;;;;;4833527;29;20522;-77
2022/06/10 06:04:49;;;;;;;3.92;2.33;;;;;;;;;;4835729;29;20134;-78
2022/06/10 06:07:18;;;;;;;2.40;1.90;;;;;;;;;;4838121;29;20197;-77
2022/06/10 06:09:45;;;;;;;3.78;2.20;;;;;;;;;;4853054;29;20092;-78
2022/06/10 06:12:13;;;;;;;2.42;2.22;;;;;;;;;;4823170;29;20197;-78
2022/06/10 06:14:40;;;;;;;4.53;1.92;;;;;;;;;;4841831;29;20042;-78
2022/06/10 06:17:08;;;;;;;2.28;2.05;;;;;;;;;;4841175;29;20080;-77
2022/06/10 06:19:35;;;;;;;2.55;2.28;;;;;;;;;;4826905;29;20475;-79
2022/06/10 06:22:03;;;;;;;2.55;1.88;;;;;;;;;;4844051;29;20062;-79
2022/06/10 06:24:36;;;;;;;2.53;2.25;;;;;;;;;;4843327;29;20054;-78
2022/06/10 06:27:05;;;;;;;6.57;2.97;;;;;;;;;;4842677;29;20077;-78
2022/06/10 06:29:33;;;;;;;3.30;2.53;;;;;;;;;;4852888;29;20069;-78
2022/06/10 06:32:00;;;;;;;3.30;2.20;;;;;;;;;;4852216;29;20140;-79
2022/06/10 06:34:28;;;;;;;3.05;2.38;;;;;;;;;;4837525;29;20518;-78
2022/06/10 06:36:56;;;;;;;2.65;2.28;;;;;;;;;;4845202;29;20145;-78
2022/06/10 06:39:24;;;;;;;4.88;2.20;;;;;;;;;;4844126;29;20390;-77
2022/06/10 06:41:53;;;;;;;3.45;2.30;;;;;;;;;;4859851;29;20128;-76
2022/06/10 06:44:30;;;;;;;9.32;2.28;;;;;;;;;;4833635;29;20112;-78
2022/06/10 06:46:58;;;;;;;5.53;2.00;;;;;;;;;;4842006;29;20511;-77
2022/06/10 06:49:27;;;;;;;4.50;2.08;;;;;;;;;;4845690;29;20049;-78
2022/06/10 06:51:55;;;;;;;1.98;1.80;;;;;;;;;;4847092;29;20057;-79
2022/06/10 06:54:24;;;;;;;3.30;2.30;;;;;;;;;;4843353;29;20045;-78
2022/06/10 06:56:52;;;;;;;3.28;2.10;;;;;;;;;;4841142;29;20141;-79
2022/06/10 06:59:19;;;;;;;2.47;2.25;;;;;;;;;;4826935;29;20049;-79
2022/06/10 07:01:47;;;;;;;3.13;2.05;;;;;;;;;;4836188;29;20071;-77
2022/06/10 07:04:14;;;;;;;7.25;2.97;;;;;;;;;;4844736;29;20486;-77
2022/06/10 07:06:44;;;;;;;3.50;2.50;;;;;;;;;;4844686;29;20164;-79
2022/06/10 07:09:13;;;;;;;3.50;2.00;;;;;;;;;;4822725;29;20052;-78
2022/06/10 07:11:41;;;;;;;4.70;2.15;;;;;;;;;;4843797;29;20046;-79
2022/06/10 07:14:11;;;;;;;2.90;2.30;;;;;;;;;;4820595;29;20113;-79
2022/06/10 07:16:39;;;;;;;4.13;2.60;;;;;;;;;;4838417;29;20161;-78
2022/06/10 07:19:06;;;;;;;2.75;2.40;;;;;;;;;;4839445;29;20422;-78
2022/06/10 07:21:34;;;;;;;3.90;2.28;;;;;;;;;;4817872;29;20038;-78
2022/06/10 07:24:01;;;;;;;8.20;2.67;;;;;;;;;;4823672;29;20065;-78
2022/06/10 07:26:29;;;;;;;2.70;2.28;;;;;;;;;;4842522;29;20529;-78
2022/06/10 07:28:56;;;;;;;4.93;2.67;;;;;;;;;;4845639;29;20045;-78
2022/06/10 07:31:24;;;;;;;5.32;2.30;;;;;;;;;;4862233;29;20107;-78
2022/06/10 07:33:52;;;;;;;8.88;3.08;;;;;;;;;;4863330;29;20057;-79
2022/06/10 07:36:19;;;;;;;3.78;2.40;;;;;;;;;;4863707;29;20458;-79
2022/06/10 07:38:47;;;;;;;2.50;2.30;;;;;;;;;;4852925;29;20075;-78
2022/06/10 07:44:06;;;;;;;2.90;2.30;;;;;;;;;;4853956;29;20382;-80
2022/06/10 07:46:38;;;;;;;2.70;2.40;;;;;;;;;;4857078;29;20045;-79
2022/06/10 07:49:14;;;;;;;4.85;2.53;;;;;;;;;;4821753;29;20102;-80
2022/06/10 07:51:42;;;;;;;4.47;2.60;;;;;;;;;;4823199;29;20049;-80
2022/06/10 07:54:23;;;;;;;4.45;2.33;;;;;;;;;;4807648;29;20045;-79
2022/06/10 07:57:16;;;;;;;4.00;2.50;;;;;;;;;;4822845;29;20474;-80
2022/06/10 07:59:46;;;;;;;3.13;2.83;;;;;;;;;;4838923;29;20513;-79
2022/06/10 08:02:19;;;;;;;4.03;2.20;;;;;;;;;;4809532;29;20054;-80
2022/06/10 08:04:53;;;;;;;2.80;2.60;;;;;;;;;;4808781;29;20089;-79
2022/06/10 08:07:57;;;;;;;3.65;2.83;;;;;;;;;;4814685;29;20050;-80
2022/06/10 08:10:29;;;;;;;4.97;2.40;;;;;;;;;;4838389;29;20209;-79
2022/06/10 08:12:57;;;;;;;3.50;2.72;;;;;;;;;;4822859;29;20046;-80
2022/06/10 08:15:25;;;;;;;3.20;2.40;;;;;;;;;;4850054;29;20041;-81
2022/06/10 08:18:03;;;;;;;2.55;2.38;;;;;;;;;;4813140;29;20069;-79
2022/06/10 08:23:23;;;;;;;4.72;2.45;;;;;;;;;;4844922;29;20083;-80
2022/06/10 08:26:00;;;;;;;3.13;2.58;;;;;;;;;;4820372;29;20060;-80
2022/06/10 08:28:31;;;;;;;5.60;2.75;;;;;;;;;;4833795;29;20053;-80
2022/06/10 08:31:26;;;;;;;6.07;2.80;;;;;;;;;;4853410;29;20102;-80
2022/06/10 08:33:55;;;;;;;4.80;2.80;;;;;;;;;;4818005;29;20148;-80
2022/06/10 08:36:31;;;;;;;3.60;2.15;;;;;;;;;;4818556;29;20042;-80
2022/06/10 08:39:02;;;;;;;4.22;2.65;;;;;;;;;;4816021;29;20384;-80
2022/06/10 08:41:38;;;;;;;3.08;2.42;;;;;;;;;;4834901;29;20494;-79
2022/06/10 08:44:30;;;;;;;3.38;2.13;;;;;;;;;;4824802;29;20046;-79
2022/06/10 08:47:07;;;;;;;3.75;2.00;;;;;;;;;;4851668;29;20041;-79
2022/06/10 08:50:08;;;;;;;3.35;2.47;;;;;;;;;;4845123;29;20109;-80
2022/06/10 08:52:41;;;;;;;3.13;2.67;;;;;;;;;;4848609;29;20042;-80
2022/06/10 08:58:25;;;;;;;3.43;2.40;;;;;;;;;;4845014;29;20106;-81
2022/06/10 09:00:58;;;;;;;2.70;2.13;;;;;;;;;;4829610;29;20045;-79
2022/06/10 09:06:51;;;;;;;2.92;1.73;;;;;;;;;;4832977;29;20050;-79
2022/06/10 09:09:20;;;;;;;1.90;1.80;;;;;;;;;;4826896;29;20087;-80
2022/06/10 09:11:52;;;;;;;3.97;2.30;;;;;;;;;;4843189;29;20092;-80
2022/06/10 09:14:21;;;;;;;;;;;;;;;;;;4838892;29;20389;-80
2022/06/10 09:16:48;;;;;;;4.88;2.33;;;;;;;;;;4840240;29;19949;-80
2022/06/10 09:19:19;;;;;;;2.33;2.13;;;;;;;;;;4837324;29;20449;-79
2022/06/10 09:22:13;;;;;;;2.20;2.10;;;;;;;;;;4821193;29;20048;-80
2022/06/10 09:24:48;;;;;;;2.85;2.10;;;;;;;;;;4827157;29;20050;-80
2022/06/10 09:27:30;;;;;;;3.13;2.03;;;;;;;;;;4815413;29;20082;-79
2022/06/10 09:30:04;;;;;;;2.63;2.20;;;;;;;;;;4843442;29;20046;-80
2022/06/10 09:33:14;;;;;;;4.10;2.55;;;;;;;;;;4829089;29;20448;-80
2022/06/10 09:36:02;;;;;;;5.95;2.47;;;;;;;;;;4810344;29;20056;-80
2022/06/10 09:38:35;;;;;;;3.08;2.03;;;;;;;;;;4836312;29;20094;-81
2022/06/10 09:41:26;;;;;;;4.45;2.30;;;;;;;;;;4837917;29;20045;-79
2022/06/10 09:44:12;;;;;;;3.87;3.40;;;;;;;;;;4808357;29;20137;-79
2022/06/10 09:46:49;;;;;;;5.40;2.30;;;;;;;;;;4850214;29;20152;-80
2022/06/10 09:53:14;;;;;;;5.22;2.58;;;;;;;;;;4842071;29;20471;-80
2022/06/10 09:55:56;;;;;;;2.65;2.40;;;;;;;;;;4838480;29;20156;-80
2022/06/10 10:02:35;;;;;;;2.35;2.15;;;;;;;;;;4845387;29;19916;-80
2022/06/10 10:05:31;;;;;;;2.33;2.20;;;;;;;;;;4831983;29;20532;-80
2022/06/10 10:08:05;;;;;;;2.03;1.80;;;;;;;;;;4823994;29;20057;-81
2022/06/10 10:10:54;;;;;;;3.83;2.20;;;;;;;;;;4856401;29;20053;-79
2022/06/10 10:13:40;;;;;;;4.25;2.30;;;;;;;;;;4859520;29;20216;-79
2022/06/10 10:16:23;;;;;;;2.92;1.98;;;;;;;;;;4824728;29;20515;-79
2022/06/10 10:19:09;;;;;;;5.00;2.20;;;;;;;;;;4812183;29;20361;-79
2022/06/10 10:21:44;;;;;;;2.50;2.10;;;;;;;;;;4844369;29;20050;-80
2022/06/10 10:24:17;;;;;;;6.50;2.58;;;;;;;;;;4839118;29;20049;-79
2022/06/10 10:26:51;;;;;;;3.38;2.13;;;;;;;;;;4811015;29;20169;-79
2022/06/10 10:29:30;;;;;;;2.53;2.28;;;;;;;;;;4803944;29;20121;-80
2022/06/10 10:32:43;;;;;;;;;;;;;;;;;;;;;
2022/06/10 10:35:31;;;;;;;3.20;2.03;;;;;;;;;;4829067;29;20406;-79
2022/06/10 10:38:00;;;;;;;2.85;2.13;;;;;;;;;;4837626;29;20049;-79
2022/06/10 10:40:35;;;;;;;2.55;2.35;;;;;;;;;;4821547;29;20082;-78
2022/06/10 10:43:31;;;;;;;2.10;1.80;;;;;;;;;;4838203;29;20165;-80
2022/06/10 10:46:16;;;;;;;2.05;1.95;;;;;;;;;;4796622;29;20132;-79
2022/06/10 10:49:31;;;;;;;2.22;2.03;;;;;;;;;;4811629;29;20292;-79
2022/06/10 10:52:31;;;;;;;1.90;1.80;;;;;;;;;;4818369;29;20045;-80
2022/06/10 10:55:52;;;;;;;2.20;1.90;;;;;;;;;;4835843;29;20045;-79
2022/06/10 10:58:35;;;;;;;2.88;1.85;;;;;;;;;;4830101;29;20046;-80
2022/06/10 11:01:07;;;;;;;3.92;2.15;;;;;;;;;;4850675;29;20076;-81
2022/06/10 11:03:50;;;;;;;2.40;2.20;;;;;;;;;;4853576;29;20061;-79
2022/06/10 11:06:26;;;;;;;3.00;2.03;;;;;;;;;;4839921;29;20042;-80
2022/06/10 11:09:13;;;;;;;2.38;2.05;;;;;;;;;;4840900;29;20046;-80
2022/06/10 11:11:42;;;;;;;4.53;2.28;;;;;;;;;;4842353;29;20050;-79
2022/06/10 11:14:35;;;;;;;2.70;2.47;;;;;;;;;;4831079;29;20049;-80
2022/06/10 11:17:13;;;;;;;2.83;2.63;;;;;;;;;;4829686;29;20119;-79
2022/06/10 11:19:49;;;;;;;3.05;2.70;;;;;;;;;;4855505;29;20075;-82
2022/06/10 11:22:38;;;;;;;4.10;2.63;;;;;;;;;;4859295;29;20093;-79
2022/06/10 11:25:15;;;;;;;4.20;2.17;;;;;;;;;;4842844;29;20070;-78
2022/06/10 11:28:00;;;;;;;3.15;2.85;;;;;;;;;;4849489;29;20061;-80
2022/06/10 11:30:36;;;;;;;3.17;2.88;;;;;;;;;;4847139;29;20057;-79
2022/06/10 11:33:18;;;;;;;2.35;2.15;;;;;;;;;;4851347;29;20069;-79
2022/06/10 11:35:58;;;;;;;4.25;3.30;;;;;;;;;;4817112;29;20056;-78
2022/06/10 11:38:30;;;;;;;6.15;3.47;;;;;;;;;;4846373;29;20070;-79
2022/06/10 11:41:14;;;;;;;6.25;3.85;;;;;;;;;;4832029;29;20057;-79
2022/06/10 11:43:43;;;;;;;3.78;3.42;;;;;;;;;;4821267;29;20137;-80
2022/06/10 11:46:21;;;;;;;10.15;9.25;;;;;;;;;;4847110;29;20447;-79
2022/06/10 11:49:01;;;;;;;4.10;3.70;;;;;;;;;;4830809;29;20057;-78
2022/06/10 11:51:34;;;;;;;3.38;3.08;;;;;;;;;;4844806;29;20414;-79
2022/06/10 11:54:18;;;;;;;2.88;2.67;;;;;;;;;;4826893;29;20090;-80
2022/06/10 11:59:49;;;;;;;4.68;3.00;;;;;;;;;;4843219;29;20087;-79
2022/06/10 12:02:35;;;;;;;8.50;3.55;;;;;;;;;;4830004;29;20042;-80
2022/06/10 12:05:02;;;;;;;4.97;3.45;;;;;;;;;;4848181;29;20050;-80
2022/06/10 12:07:31;;;;;;;4.45;3.58;;;;;;;;;;4841362;29;20062;-79
2022/06/10 12:10:02;;;;;;;4.30;3.80;;;;;;;;;;4845999;29;20061;-79
2022/06/10 12:12:36;;;;;;;4.13;3.80;;;;;;;;;;4855934;29;20077;-80
2022/06/10 12:15:26;;;;;;;6.18;3.20;;;;;;;;;;4819773;29;20056;-79
2022/06/10 12:18:31;;;;;;;3.42;3.13;;;;;;;;;;4843134;29;20045;-79
2022/06/10 12:21:25;;;;;;;3.50;3.20;;;;;;;;;;4843645;29;20552;-80
2022/06/10 12:24:20;;;;;;;7.20;3.90;;;;;;;;;;4819095;29;20038;-79
2022/06/10 12:27:28;;;;;;;5.10;3.92;;;;;;;;;;4811987;29;20090;-79
2022/06/10 12:31:00;;;;;;;4.55;4.15;;;;;;;;;;4790289;29;20050;-79
2022/06/10 12:46:59;;;;;;;4.45;4.05;;;;;;;;;;4846347;29;20090;-80
2022/06/10 12:54:18;;;;;;;5.05;4.60;;;;;;;;;;4823872;29;20065;-79
2022/06/10 12:57:11;;;;;;;5.13;4.63;;;;;;;;;;4834573;29;20053;-80
2022/06/10 12:59:39;;;;;;;6.45;4.60;;;;;;;;;;4839713;29;20129;-79
2022/06/10 13:02:32;;;;;;;3.70;3.40;;;;;;;;;;4847671;29;20134;-80
2022/06/10 13:05:04;;;;;;;7.40;3.80;;;;;;;;;;4820926;29;20052;-80
2022/06/10 13:07:38;;;;;;;4.53;3.42;;;;;;;;;;4856517;29;20145;-80
2022/06/10 13:10:38;;;;;;;3.80;3.55;;;;;;;;;;4845441;29;20106;-80
2022/06/10 13:13:23;;;;;;;4.20;3.70;;;;;;;;;;4829423;29;20491;-81
2022/06/10 13:16:11;;;;;;;4.90;4.10;;;;;;;;;;4856809;29;20051;-80
2022/06/10 13:18:40;;;;;;;4.82;3.80;;;;;;;;;;4815717;29;20161;-79
2022/06/10 13:21:13;;;;;;;4.90;3.80;;;;;;;;;;4820596;29;20198;-80
2022/06/10 13:23:49;;;;;;;4.30;3.25;;;;;;;;;;4822217;29;20127;-80
2022/06/10 13:26:18;;;;;;;4.00;3.70;;;;;;;;;;4805069;29;20082;-80
2022/06/10 13:28:46;;;;;;;4.88;3.45;;;;;;;;;;4821359;29;20157;-80
2022/06/10 13:31:33;;;;;;;3.95;3.60;;;;;;;;;;4804440;29;20050;-80
2022/06/10 13:34:24;;;;;;;4.85;3.53;;;;;;;;;;4835062;29;20049;-80
2022/06/10 13:36:58;;;;;;;4.50;3.22;;;;;;;;;;4850183;29;20053;-80
2022/06/10 13:39:52;;;;;;;5.57;2.90;;;;;;;;;;4852441;29;20054;-81
2022/06/10 13:43:31;;;;;;;3.75;2.70;;;;;;;;;;4770578;30;20136;-81
2022/06/10 13:46:37;;;;;;;3.88;2.53;;;;;;;;;;4758137;30;20053;-79
2022/06/10 14:01:11;;;;;;;2.58;2.38;;;;;;;;;;4826818;29;20041;-80
2022/06/10 14:04:41;;;;;;;3.72;2.28;;;;;;;;;;4838803;29;20122;-79
2022/06/10 14:07:43;;;;;;;2.70;2.50;;;;;;;;;;4844900;29;20034;-79
2022/06/10 14:10:20;;;;;;;2.97;2.75;;;;;;;;;;4839549;29;20245;-79
2022/06/10 14:19:46;;;;;;;3.25;2.60;;;;;;;;;;4806249;29;20130;-84
2022/06/10 14:22:20;;;;;;;2.65;2.42;;;;;;;;;;4798260;29;20066;-83
2022/06/10 14:25:06;;;;;;;3.88;2.20;;;;;;;;;;4813731;29;20042;-84
2022/06/10 14:27:34;;;;;;;5.18;2.30;;;;;;;;;;4815686;29;20179;-83
2022/06/10 14:30:09;;;;;;;3.17;2.22;;;;;;;;;;4802095;29;20069;-83
2022/06/10 14:32:36;;;;;;;3.95;2.20;;;;;;;;;;4817802;29;20404;-83
2022/06/10 14:35:23;;;;;;;3.40;2.13;;;;;;;;;;4806694;29;20054;-84
2022/06/10 14:38:00;;;;;;;4.50;3.03;;;;;;;;;;4798217;29;20054;-82
2022/06/10 14:40:27;;;;;;;5.63;2.40;;;;;;;;;;4805333;29;20066;-84
2022/06/10 14:43:04;;;;;;;2.30;2.20;;;;;;;;;;4799670;29;20064;-84
2022/06/10 14:45:39;;;;;;;4.43;1.92;;;;;;;;;;4817699;29;20129;-84
2022/06/10 14:48:08;;;;;;;3.15;2.40;;;;;;;;;;4804321;29;20051;-83
2022/06/10 14:50:37;;;;;;;3.50;2.20;;;;;;;;;;4814732;29;20388;-83
2022/06/10 14:53:16;;;;;;;2.90;2.13;;;;;;;;;;4804675;29;20062;-84
2022/06/10 14:55:46;;;;;;;3.00;2.10;;;;;;;;;;4809968;29;20135;-83
2022/06/10 14:58:18;;;;;;;2.60;2.10;;;;;;;;;;4810311;29;20415;-84
2022/06/10 15:00:47;;;;;;;3.55;2.22;;;;;;;;;;4812850;29;20111;-83
2022/06/10 15:03:19;;;;;;;2.28;1.90;;;;;;;;;;4804419;29;20038;-84
2022/06/10 15:06:15;;;;;;;2.00;1.90;;;;;;;;;;4809786;29;20089;-83
2022/06/10 15:08:53;;;;;;;2.35;2.20;;;;;;;;;;4806797;29;20047;-83
2022/06/10 15:11:21;;;;;;;3.17;1.90;;;;;;;;;;4804584;29;20047;-84
2022/06/10 15:13:49;;;;;;;4.20;1.92;;;;;;;;;;4797597;29;20063;-84
2022/06/10 15:16:18;;;;;;;2.63;1.77;;;;;;;;;;4808226;29;20051;-85
2022/06/10 15:18:46;;;;;;;2.25;2.10;;;;;;;;;;4811016;29;20054;-85
2022/06/10 15:21:22;;;;;;;2.67;2.10;;;;;;;;;;4813702;29;20141;-83
2022/06/10 15:23:51;;;;;;;1.92;1.80;;;;;;;;;;4819821;29;20054;-83
2022/06/10 15:26:23;;;;;;;2.65;1.95;;;;;;;;;;4809143;29;20049;-84
2022/06/10 15:28:51;;;;;;;2.03;1.83;;;;;;;;;;4819425;29;20048;-83
2022/06/10 15:31:19;;;;;;;1.90;1.80;;;;;;;;;;4797483;29;20045;-83
2022/06/10 15:33:50;;;;;;;2.17;1.90;;;;;;;;;;4814657;29;20042;-83
2022/06/10 15:42:03;;;;;;;3.83;2.28;;;;;;;;;;4814679;29;20050;-84
2022/06/10 15:44:32;;;;;;;3.20;2.05;;;;;;;;;;4817653;29;20047;-84
2022/06/10 15:47:01;;;;;;;2.47;2.00;;;;;;;;;;4805535;29;20062;-83
2022/06/10 15:49:29;;;;;;;4.97;2.10;;;;;;;;;;4820280;29;20461;-83
2022/06/10 15:51:58;;;;;;;2.22;2.03;;;;;;;;;;4812877;29;20083;-81
2022/06/10 15:54:31;;;;;;;2.35;2.00;;;;;;;;;;4795009;29;20047;-84
2022/06/10 15:57:08;;;;;;;2.38;2.17;;;;;;;;;;4811331;29;20102;-84
2022/06/10 15:59:37;;;;;;;2.20;2.00;;;;;;;;;;4815630;29;20527;-84
2022/06/10 16:02:12;;;;;;;3.90;2.28;;;;;;;;;;4813365;29;20055;-83
2022/06/10 16:04:40;;;;;;;2.67;1.77;;;;;;;;;;4815818;29;20676;-84
2022/06/10 16:07:07;;;;;;;2.17;1.98;;;;;;;;;;4807968;29;20069;-83
2022/06/10 16:09:35;;;;;;;4.47;2.17;;;;;;;;;;4809987;29;20415;-82
2022/06/10 16:15:20;;;;;;;2.35;2.10;;;;;;;;;;4781225;30;20051;-84
2022/06/10 16:17:49;;;;;;;2.83;2.10;;;;;;;;;;4760982;30;20523;-84
2022/06/10 16:20:18;;;;;;;2.67;2.15;;;;;;;;;;4798494;29;20099;-84
2022/06/10 16:22:46;;;;;;;2.65;2.42;;;;;;;;;;4790827;29;20061;-83
2022/06/10 16:25:14;;;;;;;2.47;2.13;;;;;;;;;;4811812;29;20126;-84
2022/06/10 16:27:45;;;;;;;2.10;1.90;;;;;;;;;;4809200;29;20137;-84
2022/06/10 16:30:15;;;;;;;2.20;2.00;;;;;;;;;;4807575;29;20050;-82
2022/06/10 16:32:42;;;;;;;3.05;1.73;;;;;;;;;;4811207;29;20051;-83
2022/06/10 16:35:17;;;;;;;2.08;1.95;;;;;;;;;;4815664;29;20053;-85
2022/06/10 16:37:46;;;;;;;3.22;1.73;;;;;;;;;;4804062;29;20038;-83
2022/06/10 16:40:15;;;;;;;1.70;1.60;;;;;;;;;;4793068;29;20126;-84
2022/06/10 16:42:49;;;;;;;3.22;1.75;;;;;;;;;;4811384;29;20130;-83
2022/06/10 16:45:22;;;;;;;5.22;1.90;;;;;;;;;;4808280;29;20043;-83